Time;durP1;ratioP1;P1;durP2;ratioP2;P2;SDS_P1;SDS_P2;PMS_P1;PMS_P2;Temp;Humidity;BMP_temperature;BMP_pressure;BME280_temperature;BME280_humidity;BME280_pressure;Samples;Min_cycle;Max_cycle;Signal;HPM_P1;HPM_P2
2022/02/26 00:01:36;;;;;;;1.50;1.27;;;25.20;55.10;;;;;;5056838;28;20437;-81
2022/02/26 00:04:02;;;;;;;2.00;1.43;;;25.20;55.20;;;;;;5057399;28;20778;-86
2022/02/26 00:06:29;;;;;;;1.63;1.37;;;25.20;55.10;;;;;;5056992;28;20434;-81
2022/02/26 00:08:56;;;;;;;2.03;1.70;;;25.20;55.10;;;;;;5056847;28;20441;-83
2022/02/26 00:11:23;;;;;;;2.73;1.40;;;25.20;55.10;;;;;;5056686;28;20525;-86
2022/02/26 00:13:50;;;;;;;1.97;1.60;;;25.20;55.10;;;;;;5056904;28;20433;-86
2022/02/26 00:16:16;;;;;;;1.50;1.20;;;25.20;55.10;;;;;;5056560;28;20484;-82
2022/02/26 00:18:44;;;;;;;1.77;1.30;;;25.20;55.00;;;;;;5056751;28;20444;-86
2022/02/26 00:21:11;;;;;;;2.50;1.63;;;25.40;55.10;;;;;;5056663;28;20437;-82
2022/02/26 00:23:38;;;;;;;2.33;1.57;;;25.20;55.00;;;;;;5056597;28;20447;-85
2022/02/26 00:26:05;;;;;;;1.90;1.40;;;25.20;54.90;;;;;;5056382;28;20442;-87
2022/02/26 00:28:33;;;;;;;3.70;1.97;;;25.20;55.00;;;;;;5056305;28;20433;-82
2022/02/26 00:31:00;;;;;;;1.37;1.10;;;25.20;54.90;;;;;;5056562;28;20500;-81
2022/02/26 00:33:26;;;;;;;1.80;1.70;;;25.20;54.90;;;;;;5056147;28;20433;-82
2022/02/26 00:35:58;;;;;;;2.10;1.77;;;25.20;54.90;;;;;;5056338;28;20437;-82
2022/02/26 00:38:25;;;;;;;1.40;1.30;;;25.20;54.90;;;;;;5056120;28;20496;-86
2022/02/26 00:40:52;;;;;;;1.63;1.30;;;25.10;54.80;;;;;;5056221;28;20805;-81
2022/02/26 00:43:19;;;;;;;3.40;1.63;;;25.20;54.80;;;;;;5056208;28;20445;-82
2022/02/26 00:45:46;;;;;;;1.50;1.40;;;25.10;55.40;;;;;;5056239;28;20442;-85
2022/02/26 00:48:13;;;;;;;2.00;1.30;;;25.10;54.80;;;;;;5055879;28;20454;-82
2022/02/26 00:50:39;;;;;;;1.50;1.27;;;25.10;54.70;;;;;;5055919;28;20452;-81
2022/02/26 00:53:07;;;;;;;1.57;1.47;;;25.10;54.70;;;;;;5056285;28;20442;-84
2022/02/26 00:55:34;;;;;;;2.37;1.40;;;25.10;54.70;;;;;;5055953;28;20231;-85
2022/02/26 00:58:02;;;;;;;1.90;1.60;;;25.10;54.70;;;;;;5055772;28;21037;-85
2022/02/26 01:00:29;;;;;;;1.80;1.30;;;25.10;54.70;;;;;;5055798;28;20466;-87
2022/02/26 01:02:56;;;;;;;1.70;1.50;;;25.10;54.70;;;;;;5054370;28;20444;-82
2022/02/26 01:05:22;;;;;;;1.70;1.30;;;25.10;54.60;;;;;;5055727;28;20445;-86
2022/02/26 01:07:49;;;;;;;1.70;1.50;;;25.10;54.60;;;;;;5055761;28;20472;-86
2022/02/26 01:10:17;;;;;;;1.87;1.40;;;25.10;54.60;;;;;;5055938;28;20438;-82
2022/02/26 01:12:44;;;;;;;1.50;1.40;;;25.10;54.60;;;;;;5055804;28;20448;-81
2022/02/26 01:15:11;;;;;;;1.50;1.40;;;25.10;54.60;;;;;;5055438;28;20434;-85
2022/02/26 01:17:38;;;;;;;2.17;1.73;;;25.20;54.70;;;;;;5055316;28;20487;-82
2022/02/26 01:20:06;;;;;;;1.83;1.40;;;25.10;54.60;;;;;;5055518;28;20445;-86
2022/02/26 01:22:33;;;;;;;1.87;1.23;;;25.10;54.60;;;;;;5055470;28;20525;-86
2022/02/26 01:24:59;;;;;;;1.90;1.33;;;25.10;54.70;;;;;;5055207;28;20449;-86
2022/02/26 01:27:27;;;;;;;1.73;1.40;;;25.10;54.70;;;;;;5055397;28;20442;-82
2022/02/26 01:29:54;;;;;;;1.60;1.27;;;25.10;54.60;;;;;;5055077;28;20972;-86
2022/02/26 01:32:21;;;;;;;2.37;1.70;;;25.00;54.60;;;;;;5055362;28;20437;-81
2022/02/26 01:34:48;;;;;;;2.37;1.30;;;25.10;54.60;;;;;;5054895;28;20438;-85
2022/02/26 01:37:15;;;;;;;2.20;1.60;;;25.00;54.60;;;;;;5055021;28;20494;-86
2022/02/26 01:39:41;;;;;;;1.40;1.20;;;25.00;54.60;;;;;;5055046;28;20438;-81
2022/02/26 01:42:08;;;;;;;1.90;1.37;;;25.00;54.60;;;;;;5054942;28;20771;-82
2022/02/26 01:44:37;;;;;;;1.50;1.40;;;25.00;54.60;;;;;;5055018;28;20460;-82
2022/02/26 01:47:04;;;;;;;2.20;1.33;;;25.00;54.50;;;;;;5054805;28;20438;-82
2022/02/26 01:49:31;;;;;;;2.03;1.53;;;25.00;54.60;;;;;;5054784;28;20437;-83
2022/02/26 01:51:58;;;;;;;1.30;1.13;;;25.00;54.50;;;;;;5055150;28;20445;-81
2022/02/26 01:54:25;;;;;;;1.30;1.20;;;25.00;54.50;;;;;;5054493;28;20462;-86
2022/02/26 01:56:51;;;;;;;1.70;1.40;;;25.00;54.50;;;;;;5054612;28;20477;-83
2022/02/26 01:59:19;;;;;;;1.70;1.60;;;25.00;54.50;;;;;;5054351;28;20473;-81
2022/02/26 02:01:47;;;;;;;1.70;1.17;;;25.00;54.50;;;;;;5054744;28;20525;-86
2022/02/26 02:04:15;;;;;;;1.70;1.40;;;25.00;54.50;;;;;;5054506;28;20438;-84
2022/02/26 02:06:42;;;;;;;1.97;1.40;;;25.00;54.50;;;;;;5054688;28;20769;-81
2022/02/26 02:09:09;;;;;;;1.87;1.43;;;25.00;54.50;;;;;;5054472;28;20442;-82
2022/02/26 02:11:36;;;;;;;1.27;1.03;;;25.00;54.50;;;;;;5054432;28;20445;-86
2022/02/26 02:14:04;;;;;;;1.30;1.20;;;25.00;55.10;;;;;;5054076;28;20438;-82
2022/02/26 02:16:31;;;;;;;1.63;1.53;;;25.00;54.50;;;;;;5054592;28;20960;-86
2022/02/26 02:19:04;;;;;;;1.67;1.43;;;25.00;54.50;;;;;;5054383;28;20441;-86
2022/02/26 02:21:30;;;;;;;2.03;1.50;;;25.00;54.50;;;;;;5054315;28;20918;-83
2022/02/26 02:23:59;;;;;;;1.83;1.67;;;24.90;55.00;;;;;;5054111;28;20966;-81
2022/02/26 02:26:27;;;;;;;2.70;1.60;;;25.00;54.50;;;;;;5053969;28;20453;-85
2022/02/26 02:28:53;;;;;;;1.40;1.17;;;24.90;55.00;;;;;;5053942;28;20462;-86
2022/02/26 02:31:20;;;;;;;2.03;1.20;;;24.90;54.40;;;;;;5054120;28;20445;-82
2022/02/26 02:33:48;;;;;;;1.50;1.30;;;24.90;54.40;;;;;;5054033;28;20450;-82
2022/02/26 02:36:15;;;;;;;2.23;1.50;;;24.90;54.40;;;;;;5053667;28;20465;-81
2022/02/26 02:38:43;;;;;;;1.43;1.20;;;24.90;54.40;;;;;;5053850;28;20490;-81
2022/02/26 02:41:11;;;;;;;2.10;1.40;;;24.90;54.40;;;;;;5053860;28;20430;-81
2022/02/26 02:43:39;;;;;;;1.80;1.57;;;24.90;54.40;;;;;;5053884;28;20437;-81
2022/02/26 02:46:06;;;;;;;2.80;1.50;;;24.90;54.40;;;;;;5053976;28;20434;-83
2022/02/26 02:48:33;;;;;;;1.40;1.30;;;24.90;54.40;;;;;;5053917;28;20468;-82
2022/02/26 02:51:00;;;;;;;1.60;1.33;;;24.90;54.40;;;;;;5053817;28;20441;-81
2022/02/26 02:53:27;;;;;;;1.90;1.40;;;24.90;54.40;;;;;;5053534;28;20460;-85
2022/02/26 02:55:54;;;;;;;1.20;1.10;;;24.90;54.40;;;;;;5053502;28;20445;-86
2022/02/26 02:58:23;;;;;;;2.47;1.73;;;24.80;54.40;;;;;;5053587;28;20478;-83
2022/02/26 03:00:50;;;;;;;1.90;1.57;;;24.80;54.40;;;;;;5053596;28;20539;-82
2022/02/26 03:03:17;;;;;;;2.07;1.27;;;24.80;54.40;;;;;;5053535;28;20461;-86
2022/02/26 03:05:45;;;;;;;1.70;1.50;;;24.80;54.40;;;;;;5053565;28;20452;-86
2022/02/26 03:08:12;;;;;;;2.20;1.47;;;24.80;54.40;;;;;;5053564;28;20442;-85
2022/02/26 03:10:39;;;;;;;1.90;1.20;;;24.80;54.40;;;;;;5053610;28;20438;-81
2022/02/26 03:13:06;;;;;;;1.80;1.33;;;24.80;54.40;;;;;;5053478;28;20442;-82
2022/02/26 03:15:34;;;;;;;2.40;1.60;;;24.80;54.40;;;;;;5053283;28;20801;-84
2022/02/26 03:18:01;;;;;;;2.37;1.53;;;24.80;54.40;;;;;;5053333;28;20988;-86
2022/02/26 03:20:28;;;;;;;1.80;1.40;;;24.80;54.40;;;;;;5053261;28;20438;-86
2022/02/26 03:22:55;;;;;;;1.70;1.20;;;24.80;54.40;;;;;;5053297;28;20441;-86
2022/02/26 03:25:23;;;;;;;2.80;1.50;;;24.80;54.60;;;;;;5052418;28;20434;-86
2022/02/26 03:27:51;;;;;;;1.80;1.60;;;24.80;54.40;;;;;;5053095;28;20445;-86
2022/02/26 03:30:18;;;;;;;1.93;1.67;;;24.80;54.40;;;;;;5053076;28;20545;-86
2022/02/26 03:32:46;;;;;;;1.50;1.27;;;24.90;54.40;;;;;;5053198;28;20442;-86
2022/02/26 03:35:13;;;;;;;1.43;1.23;;;24.90;54.40;;;;;;5053188;28;20434;-86
2022/02/26 03:37:40;;;;;;;1.70;1.23;;;24.90;54.40;;;;;;5052899;28;20827;-82
2022/02/26 03:40:09;;;;;;;1.70;1.20;;;24.90;54.40;;;;;;5053545;28;20454;-81
2022/02/26 03:42:36;;;;;;;1.40;1.30;;;24.90;54.30;;;;;;5053131;28;20495;-86
2022/02/26 03:45:03;;;;;;;1.60;1.47;;;25.00;54.30;;;;;;5053013;28;20445;-81
2022/02/26 03:47:30;;;;;;;1.50;1.40;;;25.00;54.30;;;;;;5053072;28;20442;-85
2022/02/26 03:49:58;;;;;;;1.87;1.60;;;25.00;54.20;;;;;;5053040;28;20437;-82
2022/02/26 03:52:25;;;;;;;1.60;1.40;;;25.00;54.10;;;;;;5053377;28;20437;-86
2022/02/26 03:54:52;;;;;;;2.00;1.40;;;25.10;54.10;;;;;;5052671;28;20474;-81
2022/02/26 03:57:19;;;;;;;2.33;1.33;;;25.10;54.00;;;;;;5052636;28;20438;-86
2022/02/26 03:59:46;;;;;;;1.53;1.43;;;25.20;54.00;;;;;;5052838;28;20971;-83
2022/02/26 04:02:12;;;;;;;1.60;1.40;;;25.20;53.90;;;;;;5052926;28;20437;-81
2022/02/26 04:04:39;;;;;;;2.00;1.50;;;25.20;53.90;;;;;;5053055;28;20499;-81
2022/02/26 04:07:08;;;;;;;1.20;1.07;;;25.20;53.90;;;;;;5052582;28;20438;-81
2022/02/26 04:09:35;;;;;;;1.80;1.33;;;25.20;53.90;;;;;;5052971;28;20438;-86
2022/02/26 04:12:02;;;;;;;1.47;1.37;;;25.20;53.80;;;;;;5052885;28;20928;-85
2022/02/26 04:14:29;;;;;;;1.40;1.13;;;25.20;53.80;;;;;;5052780;28;20438;-81
2022/02/26 04:16:56;;;;;;;1.50;1.30;;;25.20;53.80;;;;;;5052759;28;20806;-86
2022/02/26 04:19:23;;;;;;;1.30;1.20;;;25.20;53.80;;;;;;5052774;28;20481;-82
2022/02/26 04:21:50;;;;;;;1.17;0.90;;;25.20;53.80;;;;;;5052849;28;20461;-82
2022/02/26 04:24:19;;;;;;;1.40;1.17;;;25.20;53.80;;;;;;5052686;28;20800;-86
2022/02/26 04:26:45;;;;;;;1.90;1.53;;;25.20;53.80;;;;;;5052764;28;20437;-86
2022/02/26 04:29:12;;;;;;;2.17;1.77;;;25.20;53.80;;;;;;5052470;28;20458;-82
2022/02/26 04:31:40;;;;;;;1.73;1.40;;;25.30;54.40;;;;;;5052433;28;20542;-82
2022/02/26 04:34:06;;;;;;;1.53;1.43;;;25.20;53.80;;;;;;5052478;28;20434;-82
2022/02/26 04:36:33;;;;;;;2.40;1.27;;;25.20;53.80;;;;;;5053074;28;20453;-83
2022/02/26 04:39:00;;;;;;;1.20;1.10;;;25.20;53.70;;;;;;5056242;28;20489;-86
2022/02/26 04:41:28;;;;;;;1.40;1.30;;;25.20;53.70;;;;;;5056241;28;20448;-81
2022/02/26 04:43:56;;;;;;;1.37;1.23;;;25.20;53.60;;;;;;5056124;28;20449;-86
2022/02/26 04:46:23;;;;;;;2.10;1.43;;;25.30;53.60;;;;;;5056014;28;20438;-86
2022/02/26 04:48:50;;;;;;;2.07;1.50;;;25.30;53.60;;;;;;5055847;28;20442;-86
2022/02/26 04:51:18;;;;;;;1.70;1.30;;;25.30;53.60;;;;;;5055601;28;20438;-86
2022/02/26 04:53:45;;;;;;;1.63;1.53;;;25.30;53.40;;;;;;5055545;28;20473;-82
2022/02/26 04:56:11;;;;;;;2.00;1.43;;;25.40;53.50;;;;;;5055899;28;20448;-82
2022/02/26 04:58:40;;;;;;;1.40;1.20;;;25.40;53.40;;;;;;5055695;28;20492;-86
2022/02/26 05:01:07;;;;;;;1.60;1.47;;;25.40;53.30;;;;;;5055933;28;20452;-86
2022/02/26 05:03:34;;;;;;;3.63;1.70;;;25.40;53.30;;;;;;5055737;28;20532;-86
2022/02/26 05:06:01;;;;;;;2.23;1.30;;;25.40;53.30;;;;;;5055570;28;20445;-82
2022/02/26 05:08:28;;;;;;;1.87;1.30;;;25.40;53.20;;;;;;5055613;28;20812;-81
2022/02/26 05:10:54;;;;;;;1.87;1.30;;;25.40;53.20;;;;;;5055764;28;20438;-82
2022/02/26 05:13:21;;;;;;;1.70;1.60;;;25.40;53.20;;;;;;5055950;28;20461;-86
2022/02/26 05:15:49;;;;;;;1.23;1.13;;;25.50;53.20;;;;;;5055411;28;20440;-86
2022/02/26 05:18:16;;;;;;;1.60;1.50;;;25.50;53.20;;;;;;5055367;28;20481;-82
2022/02/26 05:20:43;;;;;;;1.53;1.43;;;25.50;53.10;;;;;;5055311;28;21016;-82
2022/02/26 05:23:10;;;;;;;1.93;1.63;;;25.50;53.10;;;;;;5055338;28;20449;-85
2022/02/26 05:25:37;;;;;;;1.80;1.40;;;25.70;53.10;;;;;;5055415;28;20449;-86
2022/02/26 05:28:04;;;;;;;1.37;1.10;;;25.50;53.00;;;;;;5055208;28;20453;-86
2022/02/26 05:30:31;;;;;;;1.80;1.60;;;25.50;52.90;;;;;;5055150;28;20780;-82
2022/02/26 05:32:59;;;;;;;1.70;1.50;;;25.50;52.90;;;;;;5055666;28;20456;-83
2022/02/26 05:35:26;;;;;;;2.00;1.80;;;25.50;52.90;;;;;;5055167;28;20452;-86
2022/02/26 05:37:53;;;;;;;1.40;1.10;;;25.50;52.90;;;;;;5054775;28;20811;-81
2022/02/26 05:40:20;;;;;;;1.53;1.43;;;25.60;52.90;;;;;;5054974;28;20513;-81
2022/02/26 05:42:48;;;;;;;1.97;1.43;;;25.60;52.90;;;;;;5055019;28;20774;-82
2022/02/26 05:45:15;;;;;;;2.10;1.57;;;25.60;52.80;;;;;;5055010;28;20450;-86
2022/02/26 05:47:41;;;;;;;1.40;1.30;;;25.60;52.80;;;;;;5054699;28;20917;-81
2022/02/26 05:50:11;;;;;;;1.70;1.20;;;25.60;52.80;;;;;;5054517;28;20947;-85
2022/02/26 05:52:37;;;;;;;1.63;1.20;;;25.60;52.80;;;;;;5054941;28;20434;-86
2022/02/26 05:55:05;;;;;;;2.43;1.67;;;25.60;52.80;;;;;;5054577;28;20466;-86
2022/02/26 05:57:32;;;;;;;1.77;1.60;;;25.60;52.70;;;;;;5054880;28;20434;-86
2022/02/26 05:59:59;;;;;;;1.80;1.47;;;25.70;52.70;;;;;;5054650;28;20493;-85
2022/02/26 06:02:25;;;;;;;1.50;1.17;;;25.70;52.70;;;;;;5054719;28;20450;-81
2022/02/26 06:04:52;;;;;;;1.40;1.20;;;25.70;52.70;;;;;;5054673;28;20453;-82
2022/02/26 06:07:20;;;;;;;1.53;1.43;;;25.70;52.70;;;;;;5054779;28;20448;-81
2022/02/26 06:09:47;;;;;;;1.60;1.20;;;25.70;52.80;;;;;;5054763;28;20445;-86
2022/02/26 06:12:14;;;;;;;3.97;1.40;;;25.70;52.70;;;;;;5054376;28;20445;-81
2022/02/26 06:14:40;;;;;;;1.40;1.30;;;25.70;52.60;;;;;;5054482;28;20932;-81
2022/02/26 06:17:07;;;;;;;1.60;1.50;;;25.70;52.60;;;;;;5054323;28;20959;-85
2022/02/26 06:19:34;;;;;;;1.90;1.70;;;25.70;52.60;;;;;;5054336;28;20478;-82
2022/02/26 06:22:01;;;;;;;1.70;1.30;;;25.70;52.60;;;;;;5054359;28;20510;-81
2022/02/26 06:24:29;;;;;;;2.00;1.50;;;25.70;52.60;;;;;;5054067;28;20438;-86
2022/02/26 06:26:56;;;;;;;1.70;1.37;;;25.70;52.60;;;;;;5054410;28;20932;-81
2022/02/26 06:29:23;;;;;;;1.60;1.50;;;25.70;52.60;;;;;;5054055;28;20804;-81
2022/02/26 06:31:49;;;;;;;1.70;1.60;;;25.70;52.60;;;;;;5054190;28;20818;-82
2022/02/26 06:34:16;;;;;;;1.60;1.50;;;25.70;52.50;;;;;;5054034;28;20444;-82
2022/02/26 06:36:43;;;;;;;2.17;1.50;;;25.70;52.50;;;;;;5053870;28;20434;-86
2022/02/26 06:39:10;;;;;;;2.27;1.67;;;25.70;52.50;;;;;;5053957;28;20583;-81
2022/02/26 06:41:38;;;;;;;2.10;1.90;;;25.70;52.50;;;;;;5054097;28;20533;-81
2022/02/26 06:44:06;;;;;;;2.30;2.10;;;25.70;52.40;;;;;;5053853;28;20438;-86
2022/02/26 06:46:35;;;;;;;1.90;1.60;;;25.70;52.40;;;;;;5054355;28;20491;-85
2022/02/26 06:49:02;;;;;;;2.33;2.13;;;25.70;52.50;;;;;;5053843;28;20449;-84
2022/02/26 06:51:29;;;;;;;1.80;1.57;;;25.80;52.50;;;;;;5053727;28;20948;-85
2022/02/26 06:53:55;;;;;;;2.67;2.13;;;25.80;52.50;;;;;;5053390;28;20465;-81
2022/02/26 06:56:22;;;;;;;2.27;2.07;;;25.70;52.50;;;;;;5053550;28;20442;-81
2022/02/26 06:58:52;;;;;;;2.20;1.90;;;25.80;52.50;;;;;;5053436;28;20492;-85
2022/02/26 07:01:18;;;;;;;1.83;1.47;;;25.80;52.50;;;;;;5053671;28;20430;-81
2022/02/26 07:03:45;;;;;;;2.97;1.80;;;25.80;52.50;;;;;;5053591;28;20434;-86
2022/02/26 07:06:12;;;;;;;2.60;1.97;;;25.80;52.50;;;;;;5053441;28;20438;-81
2022/02/26 07:08:39;;;;;;;3.20;2.00;;;25.80;52.50;;;;;;5053323;28;20453;-81
2022/02/26 07:11:05;;;;;;;2.33;2.13;;;25.80;52.40;;;;;;5053344;28;20437;-82
2022/02/26 07:13:32;;;;;;;2.57;2.23;;;26.00;52.50;;;;;;5053443;28;20797;-85
2022/02/26 07:16:00;;;;;;;3.37;2.50;;;25.80;52.40;;;;;;5053221;28;20446;-84
2022/02/26 07:18:27;;;;;;;2.83;2.13;;;25.90;52.50;;;;;;5053160;28;20477;-86
2022/02/26 07:20:54;;;;;;;2.00;1.80;;;25.80;52.30;;;;;;5053326;28;20804;-86
2022/02/26 07:23:21;;;;;;;2.43;2.23;;;25.80;52.30;;;;;;5053120;28;20442;-82
2022/02/26 07:25:47;;;;;;;2.70;2.50;;;25.80;52.30;;;;;;5053308;28;20442;-85
2022/02/26 07:28:15;;;;;;;3.17;2.87;;;25.80;52.40;;;;;;5053027;28;20442;-81
2022/02/26 07:30:42;;;;;;;2.50;2.30;;;25.80;52.30;;;;;;5053374;28;20434;-81
2022/02/26 07:33:11;;;;;;;2.47;2.27;;;25.80;52.40;;;;;;5053122;28;20462;-82
2022/02/26 07:35:38;;;;;;;2.70;2.50;;;25.90;52.40;;;;;;5053334;28;20440;-82
2022/02/26 07:38:06;;;;;;;2.13;1.87;;;25.80;52.30;;;;;;5053390;28;20445;-81
2022/02/26 07:40:33;;;;;;;3.07;2.20;;;25.80;52.30;;;;;;5044547;28;20488;-82
2022/02/26 07:42:59;;;;;;;2.77;2.57;;;25.90;52.30;;;;;;5043393;28;20434;-84
2022/02/26 07:45:26;;;;;;;2.63;2.30;;;25.90;52.30;;;;;;5041114;28;20446;-82
2022/02/26 07:47:53;;;;;;;3.40;2.40;;;25.90;52.30;;;;;;5042047;28;20439;-82
2022/02/26 07:50:22;;;;;;;3.00;2.33;;;25.90;52.40;;;;;;5049473;28;20460;-82
2022/02/26 07:52:49;;;;;;;2.53;2.33;;;25.90;52.30;;;;;;5049976;28;20804;-84
2022/02/26 07:55:16;;;;;;;2.87;2.20;;;25.90;52.30;;;;;;5035409;28;20469;-84
2022/02/26 07:57:43;;;;;;;2.87;2.67;;;25.90;52.30;;;;;;5032802;28;20442;-84
2022/02/26 08:00:11;;;;;;;3.20;2.90;;;25.90;52.30;;;;;;5032957;28;20489;-83
2022/02/26 08:02:38;;;;;;;2.93;2.63;;;25.90;52.30;;;;;;5032963;28;20435;-85
2022/02/26 08:05:06;;;;;;;3.20;2.90;;;25.90;52.20;;;;;;5032425;28;20437;-83
2022/02/26 08:07:34;;;;;;;3.40;3.10;;;25.90;52.20;;;;;;5032683;28;20466;-85
2022/02/26 08:10:01;;;;;;;2.80;2.60;;;25.90;52.30;;;;;;5032504;28;20431;-83
2022/02/26 08:12:27;;;;;;;3.10;2.73;;;25.90;52.10;;;;;;5034445;28;20442;-83
2022/02/26 08:14:54;;;;;;;3.07;2.47;;;25.90;52.20;;;;;;5036398;28;20469;-83
2022/02/26 08:17:21;;;;;;;3.00;2.70;;;25.90;52.20;;;;;;5036448;28;20446;-84
2022/02/26 08:19:48;;;;;;;3.63;2.70;;;25.90;52.30;;;;;;5036363;28;20482;-85
2022/02/26 08:22:15;;;;;;;4.00;2.67;;;25.90;52.00;;;;;;5036656;28;20449;-83
2022/02/26 08:24:43;;;;;;;3.63;3.13;;;25.80;52.20;;;;;;5036289;28;20441;-83
2022/02/26 08:27:09;;;;;;;3.87;3.30;;;25.90;52.10;;;;;;5036720;28;20438;-84
2022/02/26 08:29:36;;;;;;;4.77;3.37;;;25.90;52.10;;;;;;5036495;28;20465;-84
2022/02/26 08:32:03;;;;;;;2.70;2.50;;;25.90;52.10;;;;;;5036381;28;20442;-83
2022/02/26 08:34:30;;;;;;;3.27;2.97;;;25.90;52.30;;;;;;5036289;28;20929;-83
2022/02/26 08:36:57;;;;;;;3.00;2.63;;;25.90;52.10;;;;;;5036172;28;20443;-85
2022/02/26 08:39:25;;;;;;;3.03;2.83;;;26.00;52.00;;;;;;5036118;28;21016;-84
2022/02/26 08:41:53;;;;;;;4.50;2.60;;;26.00;52.10;;;;;;5036116;28;20473;-85
2022/02/26 08:44:20;;;;;;;3.57;2.73;;;26.00;52.10;;;;;;5036040;28;20449;-83
2022/02/26 08:46:47;;;;;;;4.50;3.40;;;26.00;52.20;;;;;;5036022;28;20442;-85
2022/02/26 08:49:13;;;;;;;3.10;2.80;;;26.00;52.20;;;;;;5036017;28;20445;-85
2022/02/26 08:51:40;;;;;;;3.17;2.87;;;26.00;52.10;;;;;;5036063;28;20449;-84
2022/02/26 08:54:07;;;;;;;3.37;3.07;;;26.00;52.10;;;;;;5042232;28;20465;-85
2022/02/26 08:56:34;;;;;;;3.53;3.23;;;26.10;52.30;;;;;;5055728;28;20925;-85
2022/02/26 08:59:02;;;;;;;3.07;2.47;;;26.10;52.30;;;;;;5055662;28;20485;-84
2022/02/26 09:01:29;;;;;;;3.10;2.80;;;26.10;52.30;;;;;;5055786;28;20484;-85
2022/02/26 09:03:56;;;;;;;3.53;3.23;;;26.10;52.30;;;;;;5055649;28;20810;-84
2022/02/26 09:06:23;;;;;;;4.90;3.77;;;26.20;52.30;;;;;;5055914;28;20438;-85
2022/02/26 09:08:49;;;;;;;3.50;2.70;;;26.10;52.20;;;;;;5055381;28;20441;-83
2022/02/26 09:11:18;;;;;;;4.33;3.93;;;26.10;52.20;;;;;;5055321;28;20441;-84
2022/02/26 09:13:45;;;;;;;3.60;3.30;;;26.20;51.70;;;;;;5055261;28;20437;-84
2022/02/26 09:16:14;;;;;;;4.10;3.30;;;26.20;52.40;;;;;;5054917;28;20457;-82
2022/02/26 09:18:41;;;;;;;6.43;5.10;;;26.20;52.20;;;;;;5055703;28;20517;-85
2022/02/26 09:21:09;;;;;;;5.83;4.80;;;26.20;51.30;;;;;;5055561;28;20485;-82
2022/02/26 09:23:36;;;;;;;6.07;3.77;;;26.20;51.20;;;;;;5053897;28;20465;-83
2022/02/26 09:26:04;;;;;;;3.80;3.50;;;26.20;52.10;;;;;;5056648;28;20804;-83
2022/02/26 09:28:33;;;;;;;4.90;3.60;;;26.10;52.60;;;;;;5059399;28;20474;-88
2022/02/26 09:31:02;;;;;;;3.47;3.17;;;26.20;52.80;;;;;;5058618;28;20928;-88
2022/02/26 09:33:30;;;;;;;4.20;3.80;;;26.20;52.60;;;;;;5055253;28;20454;-85
2022/02/26 09:35:59;;;;;;;3.40;3.10;;;26.20;51.90;;;;;;5046739;28;20489;-86
2022/02/26 09:38:27;;;;;;;3.40;3.10;;;26.30;52.20;;;;;;5039196;28;20856;-86
2022/02/26 09:40:54;;;;;;;3.87;3.47;;;26.30;52.10;;;;;;5035594;28;20857;-84
2022/02/26 09:43:22;;;;;;;7.03;4.00;;;26.40;52.40;;;;;;5034607;28;20818;-88
2022/02/26 09:45:50;;;;;;;5.03;3.40;;;26.30;51.50;;;;;;5034947;28;21085;-93
2022/02/26 09:48:17;;;;;;;4.20;3.30;;;26.30;51.40;;;;;;5034489;28;20445;-84
2022/02/26 09:50:46;;;;;;;8.27;5.60;;;26.40;52.00;;;;;;5034503;28;20956;-83
2022/02/26 09:53:13;;;;;;;5.17;3.90;;;26.40;51.50;;;;;;5034259;28;20549;-82
2022/02/26 09:55:40;;;;;;;4.47;3.80;;;26.40;51.80;;;;;;5034727;28;20467;-83
2022/02/26 09:58:07;;;;;;;5.47;3.80;;;26.50;51.90;;;;;;5034493;28;20498;-82
2022/02/26 10:00:34;;;;;;;3.70;3.30;;;26.60;51.80;;;;;;5034846;28;20479;-83
2022/02/26 10:03:01;;;;;;;6.30;4.43;;;26.70;51.70;;;;;;5033775;28;20446;-84
2022/02/26 10:05:28;;;;;;;3.50;3.20;;;26.70;51.60;;;;;;5034070;28;20451;-84
2022/02/26 10:07:56;;;;;;;4.73;4.23;;;26.90;51.60;;;;;;5033688;28;20447;-83
2022/02/26 10:10:27;;;;;;;5.83;3.90;;;27.10;51.40;;;;;;5033546;28;20443;-84
2022/02/26 10:12:55;;;;;;;4.40;3.60;;;27.10;51.40;;;;;;5033798;28;20443;-83
2022/02/26 10:15:28;;;;;;;5.10;4.20;;;27.10;51.30;;;;;;5033582;28;20446;-83
2022/02/26 10:18:04;;;;;;;4.90;4.33;;;27.40;51.20;;;;;;5033984;28;21021;-84
2022/02/26 10:20:32;;;;;;;4.53;3.50;;;27.50;51.00;;;;;;5034299;28;20558;-83
2022/02/26 10:23:01;;;;;;;8.70;4.00;;;27.80;50.80;;;;;;5034080;28;20443;-84
2022/02/26 10:25:30;;;;;;;3.63;3.13;;;27.90;50.60;;;;;;5034456;28;20454;-84
2022/02/26 10:27:58;;;;;;;4.10;3.33;;;28.20;50.50;;;;;;5034351;28;20822;-84
2022/02/26 10:30:28;;;;;;;4.27;3.87;;;28.70;50.30;;;;;;5034212;28;20984;-85
2022/02/26 10:33:09;;;;;;;4.17;3.50;;;29.00;49.80;;;;;;5034122;28;20439;-83
2022/02/26 10:35:40;;;;;;;3.80;3.50;;;29.30;49.50;;;;;;5033790;28;20444;-83
2022/02/26 10:38:20;;;;;;;4.13;3.77;;;29.40;49.40;;;;;;5033917;28;20450;-83
2022/02/26 10:40:49;;;;;;;4.30;3.90;;;29.40;49.50;;;;;;5033800;28;20486;-84
2022/02/26 10:43:37;;;;;;;4.37;3.97;;;29.30;49.50;;;;;;5033939;28;20439;-82
2022/02/26 10:46:23;;;;;;;4.30;3.90;;;29.30;49.70;;;;;;5033974;28;20443;-83
2022/02/26 10:48:51;;;;;;;6.10;4.30;;;29.20;49.90;;;;;;5033849;28;20442;-84
2022/02/26 10:51:21;;;;;;;3.87;3.43;;;29.00;50.00;;;;;;5033998;28;20435;-85
2022/02/26 10:53:50;;;;;;;4.30;3.73;;;29.00;50.20;;;;;;5033465;28;20470;-84
2022/02/26 10:56:17;;;;;;;4.10;3.70;;;28.90;50.30;;;;;;5033780;28;20443;-85
2022/02/26 10:58:44;;;;;;;5.23;4.50;;;29.00;50.50;;;;;;5033520;28;20485;-84
2022/02/26 11:01:13;;;;;;;4.27;3.87;;;28.80;50.50;;;;;;5033445;28;20486;-84
2022/02/26 11:03:41;;;;;;;4.47;4.07;;;28.80;50.60;;;;;;5033678;28;20946;-85
2022/02/26 11:06:09;;;;;;;4.23;3.83;;;28.80;50.80;;;;;;5033562;28;20922;-86
2022/02/26 11:08:37;;;;;;;3.97;3.67;;;28.80;50.90;;;;;;5033501;28;20873;-83
2022/02/26 11:11:07;;;;;;;3.73;3.40;;;28.70;50.90;;;;;;5033519;28;20443;-87
2022/02/26 11:13:35;;;;;;;3.50;3.20;;;28.70;51.00;;;;;;5033756;28;20442;-83
2022/02/26 11:16:04;;;;;;;4.00;3.33;;;28.80;51.10;;;;;;5033639;28;20969;-86
2022/02/26 11:18:39;;;;;;;3.87;3.40;;;28.70;51.10;;;;;;5033462;28;20427;-84
2022/02/26 11:21:08;;;;;;;3.80;3.50;;;28.80;51.20;;;;;;5033398;28;20482;-86
2022/02/26 11:23:35;;;;;;;3.67;3.30;;;28.80;51.30;;;;;;5033297;28;20999;-85
2022/02/26 11:26:02;;;;;;;3.87;3.57;;;28.70;51.30;;;;;;5033438;28;20446;-85
2022/02/26 11:28:31;;;;;;;4.30;3.50;;;28.70;51.40;;;;;;5033327;28;20466;-87
2022/02/26 11:31:00;;;;;;;3.57;3.27;;;28.70;51.40;;;;;;5033319;28;20447;-83
2022/02/26 11:33:28;;;;;;;3.40;3.13;;;28.70;51.50;;;;;;5033309;28;20439;-86
2022/02/26 11:35:56;;;;;;;3.93;3.63;;;28.60;51.60;;;;;;5033117;28;20450;-86
2022/02/26 11:38:24;;;;;;;4.00;3.60;;;28.60;51.60;;;;;;5033397;28;20453;-83
2022/02/26 11:41:12;;;;;;;4.03;3.73;;;28.50;51.70;;;;;;5033207;28;20490;-84
2022/02/26 11:43:40;;;;;;;4.07;3.60;;;28.40;51.80;;;;;;5033076;28;20497;-85
2022/02/26 11:46:31;;;;;;;4.10;3.70;;;28.30;51.90;;;;;;5033318;28;20446;-83
2022/02/26 11:49:00;;;;;;;3.87;3.57;;;28.20;51.90;;;;;;5037252;28;20439;-86
2022/02/26 11:51:35;;;;;;;3.93;3.60;;;28.10;52.00;;;;;;5037259;28;20465;-87
2022/02/26 11:54:05;;;;;;;4.73;3.60;;;28.10;52.10;;;;;;5031415;28;20475;-86
2022/02/26 11:56:44;;;;;;;3.63;3.33;;;28.00;52.10;;;;;;5017453;28;20435;-86
2022/02/26 11:59:12;;;;;;;3.37;3.17;;;28.00;52.20;;;;;;5017568;28;20934;-83
2022/02/26 12:02:08;;;;;;;3.27;2.97;;;27.90;52.10;;;;;;5017215;28;20997;-83
2022/02/26 12:04:44;;;;;;;3.53;3.23;;;27.90;52.20;;;;;;5017113;28;20439;-83
2022/02/26 12:07:11;;;;;;;3.83;3.50;;;27.90;52.20;;;;;;5017326;28;20798;-83
2022/02/26 12:09:59;;;;;;;3.40;3.10;;;27.90;52.30;;;;;;5016970;28;20439;-84
2022/02/26 12:12:35;;;;;;;3.30;3.10;;;27.80;52.30;;;;;;5017311;28;20439;-84
2022/02/26 12:15:02;;;;;;;3.30;3.00;;;27.80;52.40;;;;;;5017108;28;20450;-86
2022/02/26 12:17:30;;;;;;;3.20;2.90;;;27.80;52.40;;;;;;5017896;28;20443;-84
2022/02/26 12:19:57;;;;;;;3.80;3.50;;;27.70;52.40;;;;;;5026419;28;20444;-87
2022/02/26 12:22:31;;;;;;;3.80;3.00;;;27.70;52.40;;;;;;5025109;28;20447;-86
2022/02/26 12:24:58;;;;;;;4.03;3.57;;;27.60;52.40;;;;;;5017348;28;20501;-86
2022/02/26 12:27:32;;;;;;;3.17;2.83;;;27.60;52.40;;;;;;5016831;28;20454;-86
2022/02/26 12:30:06;;;;;;;2.87;2.67;;;27.60;52.40;;;;;;5017007;28;20489;-87
2022/02/26 12:32:50;;;;;;;3.20;3.00;;;27.70;52.50;;;;;;5016830;28;20446;-86
2022/02/26 12:35:17;;;;;;;2.50;2.30;;;27.70;52.50;;;;;;5016879;28;20450;-87
2022/02/26 12:37:46;;;;;;;3.00;2.67;;;27.60;52.40;;;;;;5016719;28;20899;-86
2022/02/26 12:40:14;;;;;;;3.67;2.90;;;27.70;52.60;;;;;;5016278;28;20479;-86
2022/02/26 12:42:43;;;;;;;2.80;2.60;;;27.60;52.50;;;;;;5016328;28;20443;-84
2022/02/26 12:45:12;;;;;;;2.87;2.57;;;27.60;52.60;;;;;;5016771;28;20452;-86
2022/02/26 12:47:41;;;;;;;2.80;2.60;;;27.60;52.60;;;;;;5016291;28;20447;-83
2022/02/26 12:50:11;;;;;;;2.60;2.40;;;27.60;52.70;;;;;;5016570;28;20436;-87
2022/02/26 12:52:40;;;;;;;2.77;2.47;;;27.60;52.70;;;;;;5016432;28;20458;-87